Time;durP1;ratioP1;P1;durP2;ratioP2;P2;SDS_P1;SDS_P2;PMS_P1;PMS_P2;Temp;Humidity;BMP_temperature;BMP_pressure;BME280_temperature;BME280_humidity;BME280_pressure;Samples;Min_cycle;Max_cycle;Signal;HPM_P1;HPM_P2
2022/12/26 00:00:54;;;;;;;47.78;28.33;;;;;;;8.81;100.00;100814.69;4995082;28;20041;-60
2022/12/26 00:03:20;;;;;;;53.15;28.63;;;;;;;8.88;100.00;100813.63;4995449;28;20500;-60
2022/12/26 00:05:47;;;;;;;47.67;27.13;;;;;;;8.88;100.00;100804.00;5013144;28;20026;-61
2022/12/26 00:08:18;;;;;;;47.00;26.30;;;;;;;8.93;100.00;100809.13;4995677;28;20041;-62
2022/12/26 00:10:44;;;;;;;48.67;27.35;;;;;;;8.74;100.00;100786.88;5011577;28;20096;-61
2022/12/26 00:13:09;;;;;;;47.67;27.35;;;;;;;8.83;100.00;100811.13;5012704;28;20503;-62
2022/12/26 00:15:39;;;;;;;45.67;26.55;;;;;;;8.84;100.00;100817.25;5012859;28;20583;-61
2022/12/26 00:18:06;;;;;;;41.23;25.83;;;;;;;8.86;100.00;100818.94;4979178;28;20033;-60
2022/12/26 00:20:31;;;;;;;46.05;26.98;;;;;;;8.88;100.00;100817.13;4995194;28;20044;-61
2022/12/26 00:22:58;;;;;;;46.50;26.75;;;;;;;8.73;100.00;100798.25;4994391;28;20034;-62
2022/12/26 00:25:23;;;;;;;44.45;25.60;;;;;;;8.86;100.00;100825.94;5012500;28;20048;-63
2022/12/26 00:27:49;;;;;;;47.40;26.70;;;;;;;8.82;100.00;100829.53;5012725;28;20120;-61
2022/12/26 00:30:14;;;;;;;45.28;26.60;;;;;;;8.72;100.00;100812.31;5012512;28;20076;-61
2022/12/26 00:32:39;;;;;;;45.53;26.00;;;;;;;8.85;100.00;100825.06;5012305;28;20038;-61
2022/12/26 00:35:05;;;;;;;45.42;26.75;;;;;;;8.75;100.00;100818.34;5012805;28;20048;-60
2022/12/26 00:37:30;;;;;;;41.15;25.75;;;;;;;8.82;100.00;100835.66;5012189;28;20040;-61
2022/12/26 00:39:56;;;;;;;51.15;28.50;;;;;;;8.81;100.00;100827.81;4993991;28;20054;-62
2022/12/26 00:42:21;;;;;;;47.10;28.20;;;;;;;8.60;100.00;100789.00;5012326;28;20081;-61
2022/12/26 00:44:46;;;;;;;44.50;27.88;;;;;;;8.49;100.00;100766.50;5012269;28;20386;-61
2022/12/26 00:47:12;;;;;;;50.97;29.13;;;;;;;8.78;100.00;100812.16;5011991;28;20034;-61
2022/12/26 00:49:37;;;;;;;48.22;29.95;;;;;;;8.62;100.00;100808.19;5011682;28;20037;-61
2022/12/26 00:52:02;;;;;;;50.97;29.88;;;;;;;8.73;100.00;100820.13;4994479;28;20045;-61
2022/12/26 00:54:28;;;;;;;48.80;27.63;;;;;;;8.30;100.00;100744.25;5012027;28;20038;-61
2022/12/26 00:56:53;;;;;;;48.53;28.60;;;;;;;8.30;100.00;100732.91;5012084;28;20091;-61
2022/12/26 00:59:18;;;;;;;47.53;28.23;;;;;;;8.69;100.00;100797.50;5012040;28;20497;-60
2022/12/26 01:01:44;;;;;;;44.85;27.58;;;;;;;8.40;100.00;100742.28;5014174;28;20104;-61
2022/12/26 01:04:09;;;;;;;52.70;29.15;;;;;;;8.42;100.00;100748.34;5016003;28;20033;-61
2022/12/26 01:06:34;;;;;;;51.58;28.13;;;;;;;8.67;100.00;100801.06;4998114;28;20038;-61
2022/12/26 01:08:59;;;;;;;52.08;28.80;;;;;;;8.60;100.00;100784.63;5015534;28;20074;-61
2022/12/26 01:11:40;;;;;;;52.97;29.80;;;;;;;8.68;100.00;100806.25;5016544;28;20396;-61
2022/12/26 01:14:11;;;;;;;50.53;29.13;;;;;;;8.64;100.00;100803.78;5000340;28;20030;-61
2022/12/26 01:16:38;;;;;;;50.47;27.73;;;;;;;8.45;100.00;100777.97;5015857;28;20053;-61
2022/12/26 01:19:04;;;;;;;51.58;27.58;;;;;;;8.23;100.00;100741.81;4998422;28;20104;-61
2022/12/26 01:21:29;;;;;;;49.28;28.48;;;;;;;8.56;100.00;100810.94;4998323;28;20038;-61
2022/12/26 01:23:55;;;;;;;46.47;27.15;;;;;;;8.22;100.00;100727.81;5015536;28;20499;-62
2022/12/26 01:26:20;;;;;;;44.25;26.90;;;;;;;8.48;100.00;100772.66;5015698;28;20044;-62
2022/12/26 01:28:50;;;;;;;43.28;25.52;;;;;;;8.52;100.00;100789.19;5015766;28;20038;-61
2022/12/26 01:31:16;;;;;;;41.33;24.65;;;;;;;8.54;100.00;100789.16;4998252;28;20096;-62
2022/12/26 01:33:41;;;;;;;44.38;25.85;;;;;;;8.55;100.00;100793.50;4997879;28;20481;-61
2022/12/26 01:36:07;;;;;;;44.28;24.27;;;;;;;8.56;100.00;100796.06;5015093;28;20464;-61
2022/12/26 01:38:32;;;;;;;35.83;22.02;;;;;;;8.15;100.00;100735.84;5015628;28;20036;-62
2022/12/26 01:41:16;;;;;;;42.67;23.42;;;;;;;8.56;100.00;100813.56;4997439;28;20054;-62
2022/12/26 01:43:57;;;;;;;35.85;22.08;;;;;;;8.60;100.00;100826.59;5015360;28;20033;-62
2022/12/26 01:46:38;;;;;;;36.92;22.70;;;;;;;7.93;100.00;100710.19;5015305;28;20095;-62
2022/12/26 01:49:30;;;;;;;33.03;22.27;;;;;;;8.63;100.00;100815.16;4981527;28;20436;-61
2022/12/26 01:51:59;;;;;;;31.33;19.55;;;;;;;8.24;100.00;100759.25;5004212;28;20504;-61
2022/12/26 01:54:26;;;;;;;35.33;22.20;;;;;;;8.24;100.00;100752.25;5014958;28;20042;-62
2022/12/26 01:56:52;;;;;;;30.73;19.73;;;;;;;8.35;100.00;100770.34;5015034;28;20053;-61
2022/12/26 01:59:20;;;;;;;27.95;19.00;;;;;;;8.56;100.00;100789.97;4997666;28;20080;-61
2022/12/26 02:01:48;;;;;;;33.22;19.60;;;;;;;8.65;100.00;100819.47;4997572;28;20041;-61
2022/12/26 02:07:01;;;;;;;28.15;18.75;;;;;;;8.65;100.00;100813.34;5015047;28;20053;-61
2022/12/26 02:09:27;;;;;;;24.77;18.10;;;;;;;8.29;100.00;100760.88;4997259;28;20535;-61
2022/12/26 02:12:15;;;;;;;27.23;18.85;;;;;;;8.24;100.00;100757.47;5014838;28;20069;-61
2022/12/26 02:14:40;;;;;;;25.00;18.63;;;;;;;8.11;100.00;100722.00;4997375;28;20033;-62
2022/12/26 02:17:06;;;;;;;27.17;18.42;;;;;;;8.25;100.00;100747.88;4997191;28;20030;-61
2022/12/26 02:19:37;;;;;;;28.67;19.10;;;;;;;8.15;100.00;100725.38;5014602;28;20052;-61
2022/12/26 02:22:23;;;;;;;27.58;18.77;;;;;;;8.60;100.00;100804.72;5014386;28;20037;-61
2022/12/26 02:24:48;;;;;;;24.65;18.25;;;;;;;8.59;100.00;100805.63;4981243;28;20034;-62
2022/12/26 02:27:41;;;;;;;26.80;19.10;;;;;;;8.62;100.00;100798.53;5014766;28;20040;-61
2022/12/26 02:30:35;;;;;;;28.80;19.73;;;;;;;8.67;100.00;100806.31;5014500;28;20388;-61
2022/12/26 02:33:12;;;;;;;26.08;17.98;;;;;;;8.72;100.00;100783.44;4997288;28;20057;-62
2022/12/26 02:36:01;;;;;;;27.52;19.50;;;;;;;8.30;100.00;100719.78;5014594;28;20034;-62
2022/12/26 02:38:40;;;;;;;30.92;19.90;;;;;;;8.77;100.00;100800.78;5014751;28;20042;-62
2022/12/26 02:41:44;;;;;;;25.27;18.67;;;;;;;8.79;100.00;100792.84;5014153;28;20049;-61
2022/12/26 02:47:23;;;;;;;28.65;20.40;;;;;;;8.71;100.00;100794.81;4999508;28;20066;-62
2022/12/26 03:15:18;;;;;;;31.70;24.55;;;;;;;8.13;100.00;100809.31;5013980;28;20459;-61
2022/12/26 03:17:52;;;;;;;32.38;24.08;;;;;;;8.10;100.00;100800.66;4996134;28;20500;-60
2022/12/26 03:20:26;;;;;;;29.48;22.98;;;;;;;8.04;100.00;100796.41;5013747;28;20030;-60
2022/12/26 03:22:57;;;;;;;31.65;23.30;;;;;;;8.15;100.00;100817.13;4996186;28;20428;-63
2022/12/26 03:28:19;;;;;;;30.70;24.00;;;;;;;7.57;100.00;100702.28;5013782;28;20397;-64
2022/12/26 03:30:47;;;;;;;29.27;23.10;;;;;;;8.05;100.00;100779.81;4995923;28;20034;-62
2022/12/26 03:36:02;;;;;;;25.92;20.40;;;;;;;7.60;100.00;100700.47;5013249;28;20049;-62
2022/12/26 03:38:34;;;;;;;28.25;21.38;;;;;;;7.91;100.00;100779.22;4995172;28;20056;-61
2022/12/26 04:19:22;;;;;;;25.83;18.25;;;;;;;7.93;100.00;100780.06;4969770;28;20041;-62
2022/12/26 04:19:38;;;;;;;13.60;9.10;;;;;;;8.00;100.00;100810.47;4997817;28;20464;-62
2022/12/26 04:44:45;;;;;;;8.25;6.60;;;;;;;7.72;100.00;100770.94;5012486;28;20669;-61
2022/12/26 04:47:10;;;;;;;12.65;6.85;;;;;;;7.45;100.00;100728.72;4994908;28;20132;-61
2022/12/26 04:55:11;;;;;;;9.57;6.88;;;;;;;7.64;100.00;100753.66;4997433;28;20049;-63
2022/12/26 04:57:36;;;;;;;8.82;5.75;;;;;;;7.78;100.00;100765.56;5012126;28;20030;-61
2022/12/26 05:00:03;;;;;;;7.60;5.80;;;;;;;7.64;100.00;100738.81;5012682;28;20088;-60
2022/12/26 05:10:40;;;;;;;7.38;4.60;;;;;;;7.43;100.00;100694.75;5012392;28;20137;-62
2022/12/26 05:13:05;;;;;;;5.45;4.22;;;;;;;7.52;100.00;100712.88;4994090;28;20109;-61
2022/12/26 05:28:40;;;;;;;6.57;4.53;;;;;;;7.52;100.00;100710.25;5012355;28;20037;-63
2022/12/26 05:29:13;;;;;;;4.80;3.42;;;;;;;8.08;100.00;100769.25;4997381;28;20053;-62
2022/12/26 05:31:38;;;;;;;5.70;3.70;;;;;;;8.08;100.00;100790.22;5011634;28;20470;-62
2022/12/26 05:34:05;;;;;;;6.47;3.42;;;;;;;7.65;100.00;100708.19;5011904;28;20041;-62
2022/12/26 05:36:43;;;;;;;5.95;3.17;;;;;;;8.05;100.00;100784.19;4994480;28;20037;-61
2022/12/26 05:39:08;;;;;;;6.03;3.55;;;;;;;8.03;100.00;100799.06;5011992;28;20030;-63
2022/12/26 05:41:35;;;;;;;4.68;3.22;;;;;;;8.05;100.00;100789.41;5011883;28;20050;-62
2022/12/26 05:44:00;;;;;;;7.45;3.97;;;;;;;7.98;100.00;100764.22;4994330;28;20125;-62
2022/12/26 05:46:25;;;;;;;6.82;3.65;;;;;;;7.61;100.00;100712.69;5012094;28;20125;-61
2022/12/26 05:48:51;;;;;;;3.78;3.40;;;;;;;7.59;100.00;100711.81;5015320;28;20057;-61
2022/12/26 05:51:16;;;;;;;11.80;3.90;;;;;;;8.01;100.00;100783.38;5015485;28;20040;-62
2022/12/26 05:53:41;;;;;;;9.32;4.07;;;;;;;7.58;100.00;100710.13;5014973;28;20042;-62
2022/12/26 05:56:13;;;;;;;7.10;3.45;;;;;;;7.92;100.00;100762.63;5014941;28;20081;-63
2022/12/26 05:58:39;;;;;;;9.43;4.32;;;;;;;8.00;100.00;100767.72;5014830;28;20076;-62
2022/12/26 06:01:14;;;;;;;4.20;3.70;;;;;;;8.03;100.00;100786.81;5015306;28;20073;-62
2022/12/26 06:03:42;;;;;;;8.75;3.80;;;;;;;7.99;100.00;100773.84;4997450;28;20113;-63
2022/12/26 06:06:08;;;;;;;5.88;3.40;;;;;;;8.01;100.00;100770.28;4997602;28;20034;-63
2022/12/26 06:08:33;;;;;;;4.78;3.75;;;;;;;7.87;100.00;100747.00;4997360;28;20096;-64
2022/12/26 06:11:02;;;;;;;8.68;4.13;;;;;;;8.19;100.00;100784.72;4997046;28;20038;-63
2022/12/26 06:13:27;;;;;;;6.82;3.40;;;;;;;7.73;100.00;100717.66;5014541;28;20092;-64
2022/12/26 06:15:53;;;;;;;5.80;3.63;;;;;;;7.77;100.00;100721.03;5014621;28;20037;-61
2022/12/26 06:18:18;;;;;;;6.38;4.78;;;;;;;8.21;100.00;100793.41;4997004;28;20133;-62
2022/12/26 06:20:43;;;;;;;7.93;4.05;;;;;;;8.23;100.00;100789.84;5014680;28;20073;-62
2022/12/26 06:23:09;;;;;;;5.80;3.75;;;;;;;7.93;100.00;100738.16;5014794;28;20033;-63
2022/12/26 06:25:34;;;;;;;7.55;4.43;;;;;;;8.28;100.00;100798.53;5014438;28;20030;-64
2022/12/26 06:27:59;;;;;;;6.03;4.05;;;;;;;8.33;100.00;100799.25;5014335;28;20030;-65
2022/12/26 06:30:25;;;;;;;4.90;4.30;;;;;;;8.38;100.00;100789.50;5014526;28;20131;-61
2022/12/26 06:32:50;;;;;;;6.30;4.20;;;;;;;8.39;100.00;100786.00;5014337;28;20034;-62
2022/12/26 06:35:15;;;;;;;6.38;4.10;;;;;;;7.71;100.00;100664.41;5014573;28;20034;-62
2022/12/26 06:37:41;;;;;;;5.93;4.07;;;;;;;8.38;100.00;100776.41;4996874;28;20092;-63
2022/12/26 06:40:07;;;;;;;9.07;4.65;;;;;;;8.00;100.00;100710.03;4996858;28;20096;-65
2022/12/26 06:42:32;;;;;;;6.43;3.80;;;;;;;8.22;100.00;100745.31;5014486;28;20086;-65
2022/12/26 06:44:57;;;;;;;9.10;4.50;;;;;;;8.55;100.00;100786.50;5014609;28;20113;-63
2022/12/26 06:47:22;;;;;;;7.25;3.75;;;;;;;8.53;100.00;100763.81;4980822;28;20038;-65
2022/12/26 06:49:48;;;;;;;6.15;4.13;;;;;;;8.64;100.00;100785.41;4980587;28;20041;-62
2022/12/26 06:52:13;;;;;;;4.75;3.83;;;;;;;8.12;100.00;100702.72;5014000;28;20061;-65
2022/12/26 06:54:39;;;;;;;7.57;4.03;;;;;;;8.67;100.00;100795.81;5014278;28;20046;-65
2022/12/26 06:57:04;;;;;;;7.07;3.78;;;;;;;8.69;100.00;100791.38;5013867;28;20038;-64
2022/12/26 06:59:30;;;;;;;10.00;4.10;;;;;;;8.61;100.00;100780.22;5013236;28;20445;-64
2022/12/26 07:01:55;;;;;;;5.25;3.90;;;;;;;8.40;100.00;100735.28;4996560;28;20065;-66
2022/12/26 07:04:20;;;;;;;5.55;3.90;;;;;;;8.28;100.00;100709.34;5013962;28;20523;-62
2022/12/26 07:06:46;;;;;;;7.15;3.97;;;;;;;8.57;100.00;100773.31;4996133;28;20030;-63
2022/12/26 07:09:13;;;;;;;10.27;4.78;;;;;;;8.28;100.00;100706.72;4996076;28;20045;-64
2022/12/26 07:11:40;;;;;;;6.32;3.60;;;;;;;8.61;100.00;100765.31;5013780;28;20037;-63
2022/12/26 07:14:07;;;;;;;8.65;3.67;;;;;;;8.44;100.00;100762.25;5013873;28;20038;-66
2022/12/26 07:16:36;;;;;;;4.82;3.38;;;;;;;8.06;100.00;100704.63;5013657;28;20030;-63
2022/12/26 07:19:02;;;;;;;13.15;5.00;;;;;;;8.55;100.00;100801.38;5013572;28;20029;-63
2022/12/26 07:21:27;;;;;;;5.63;3.30;;;;;;;8.20;100.00;100736.63;4996315;28;20040;-65
2022/12/26 07:23:54;;;;;;;4.97;3.17;;;;;;;8.63;100.00;100802.91;5013510;28;20042;-62
2022/12/26 07:26:20;;;;;;;7.45;3.13;;;;;;;8.63;100.00;100786.28;4996225;28;20045;-62
2022/12/26 07:28:46;;;;;;;5.75;3.35;;;;;;;8.65;100.00;100806.34;5013488;28;20033;-63
2022/12/26 07:31:18;;;;;;;7.20;4.63;;;;;;;8.56;100.00;100788.19;4996156;28;20034;-63
2022/12/26 07:33:47;;;;;;;9.40;3.33;;;;;;;8.30;100.00;100739.00;5013286;28;20096;-63
2022/12/26 07:36:13;;;;;;;6.13;3.22;;;;;;;8.69;100.00;100829.00;5013360;28;20038;-64
2022/12/26 07:38:38;;;;;;;5.65;3.13;;;;;;;8.22;100.00;100732.19;5013211;28;20049;-61
2022/12/26 07:41:56;;;;;;;9.63;3.63;;;;;;;8.39;100.00;100767.63;5013553;28;20058;-64
2022/12/26 07:43:49;;;;;;;6.10;3.38;;;;;;;8.27;100.00;100728.59;5013036;28;20124;-64
2022/12/26 07:46:14;;;;;;;6.90;3.38;;;;;;;8.69;100.00;100800.13;5013144;28;20250;-66
2022/12/26 07:48:39;;;;;;;8.88;3.40;;;;;;;8.71;100.00;100827.19;5013248;28;20038;-61
2022/12/26 07:51:05;;;;;;;9.98;3.42;;;;;;;8.71;100.00;100819.31;5012699;28;20034;-64
2022/12/26 07:53:30;;;;;;;7.18;3.50;;;;;;;8.41;100.00;100757.97;4995363;28;20046;-61
2022/12/26 07:55:59;;;;;;;8.60;3.83;;;;;;;8.60;100.00;100821.34;5012374;28;20037;-62
2022/12/26 07:58:24;;;;;;;5.95;3.17;;;;;;;8.30;100.00;100756.50;4995694;28;20038;-64
2022/12/26 08:00:50;;;;;;;9.07;3.63;;;;;;;8.43;100.00;100778.94;5012802;28;20034;-64
2022/12/26 08:03:15;;;;;;;5.20;3.88;;;;;;;8.79;100.00;100851.47;5012715;28;20401;-64
2022/12/26 08:05:44;;;;;;;6.18;3.67;;;;;;;8.34;100.00;100780.00;4995017;28;20382;-67
2022/12/26 08:08:09;;;;;;;10.75;3.63;;;;;;;8.47;100.00;100809.41;4995304;28;20041;-63
2022/12/26 08:10:34;;;;;;;8.98;3.67;;;;;;;8.70;100.00;100859.56;5012352;28;20052;-64
2022/12/26 08:13:00;;;;;;;8.85;2.83;;;;;;;8.45;100.00;100822.56;5012497;28;20392;-63
2022/12/26 08:15:25;;;;;;;5.78;3.10;;;;;;;8.74;100.00;100881.34;5012515;28;20038;-65
2022/12/26 08:17:50;;;;;;;9.68;3.00;;;;;;;8.71;100.00;100889.28;5012433;28;20041;-62
2022/12/26 08:20:16;;;;;;;7.97;2.83;;;;;;;8.64;100.00;100888.56;4994719;28;20030;-65
2022/12/26 08:22:42;;;;;;;11.80;2.40;;;;;;;8.10;100.00;100830.38;5010699;28;20065;-66
2022/12/26 08:25:08;;;;;;;9.75;2.47;;;;;;;8.51;100.00;100904.66;5011871;28;20069;-63
2022/12/26 08:27:33;;;;;;;10.45;4.10;;;;;;;8.04;100.00;100835.75;5011977;28;20038;-63
2022/12/26 08:29:59;;;;;;;5.60;2.50;;;;;;;8.45;100.00;100945.00;4994987;28;20112;-63
2022/12/26 08:32:24;;;;;;;9.18;2.58;;;;;;;8.42;100.00;100927.56;4994500;28;20096;-62
2022/12/26 08:34:49;;;;;;;3.45;2.00;;;;;;;8.01;100.00;100871.63;5012303;28;20052;-62
2022/12/26 08:37:15;;;;;;;9.63;2.47;;;;;;;8.36;100.00;100930.31;5012394;28;20394;-63
2022/12/26 08:39:40;;;;;;;9.63;2.20;;;;;;;8.34;100.00;100947.88;5012013;28;20044;-62
2022/12/26 08:42:05;;;;;;;11.32;2.00;;;;;;;8.28;100.00;100945.38;4994200;28;20046;-62
2022/12/26 08:44:31;;;;;;;8.13;2.38;;;;;;;8.23;100.00;100944.53;5012415;28;20045;-62
2022/12/26 08:46:56;;;;;;;10.63;2.40;;;;;;;8.19;100.00;100950.78;5011819;28;20049;-62
2022/12/26 08:49:21;;;;;;;14.82;3.05;;;;;;;8.20;100.00;100959.50;4994426;28;20038;-62
2022/12/26 08:51:47;;;;;;;10.40;2.28;;;;;;;8.10;100.00;100955.34;5012009;28;20034;-63
2022/12/26 08:54:12;;;;;;;8.85;2.47;;;;;;;8.13;100.00;100987.59;5012069;28;20056;-63
2022/12/26 08:56:37;;;;;;;14.02;2.40;;;;;;;8.13;100.00;101005.09;5011947;28;20420;-61
2022/12/26 08:59:03;;;;;;;21.30;3.13;;;;;;;8.10;100.00;101029.63;5012057;28;20073;-62
2022/12/26 09:01:29;;;;;;;19.15;3.28;;;;;;;7.55;100.00;100961.66;5011798;28;20033;-62
2022/12/26 09:03:57;;;;;;;27.73;4.25;;;;;;;7.44;100.00;100974.06;5011778;28;20108;-62
2022/12/26 09:06:22;;;;;;;19.35;4.38;;;;;;;6.91;100.00;100925.22;4994048;28;20029;-61
2022/12/26 09:08:48;;;;;;;12.60;2.90;;;;;;;7.68;100.00;101069.69;4977990;28;20040;-62
2022/12/26 09:11:17;;;;;;;13.40;2.72;;;;;;;7.49;100.00;101082.25;5011835;28;20050;-63
2022/12/26 09:13:43;;;;;;;13.10;2.75;;;;;;;7.03;100.00;101034.09;4994204;28;20074;-62
2022/12/26 09:16:11;;;;;;;13.88;3.05;;;;;;;7.24;100.00;101080.88;4994325;28;20026;-63
2022/12/26 09:18:37;;;;;;;17.30;2.38;;;;;;;6.84;100.00;101035.22;5012034;28;20088;-62
2022/12/26 09:21:04;;;;;;;11.35;2.70;;;;;;;7.17;100.00;101106.28;5012087;28;20065;-62
2022/12/26 09:23:30;;;;;;;11.35;1.98;;;;;;;7.18;100.00;101126.31;5014916;28;20529;-62
2022/12/26 09:26:05;;;;;;;12.57;2.42;;;;;;;6.73;100.00;101053.69;4997630;28;20125;-64
2022/12/26 09:28:31;;;;;;;8.05;2.13;;;;;;;6.87;100.00;101098.84;4997810;28;20440;-61
2022/12/26 09:31:04;;;;;;;10.30;2.35;;;;;;;7.12;100.00;101149.97;5015143;28;20038;-61
2022/12/26 09:33:30;;;;;;;8.77;1.90;;;;;;;6.77;100.00;101094.63;4997819;28;20034;-64
2022/12/26 09:35:56;;;;;;;10.63;2.85;;;;;;;6.60;100.00;101080.88;5015360;28;20053;-64
2022/12/26 09:38:21;;;;;;;9.75;2.38;;;;;;;7.09;100.00;101185.81;5015078;28;20037;-65
2022/12/26 09:41:10;;;;;;;10.40;2.33;;;;;;;7.06;100.00;101180.63;5014879;28;20057;-62
2022/12/26 09:44:10;;;;;;;15.88;2.60;;;;;;;6.60;100.00;101102.66;4997670;28;20064;-63
2022/12/26 09:46:46;;;;;;;11.95;2.60;;;;;;;6.73;100.00;101125.19;5015355;28;20088;-62
2022/12/26 09:49:58;;;;;;;7.70;2.38;;;;;;;6.99;100.00;101177.19;4997317;28;20037;-62
2022/12/26 09:52:36;;;;;;;9.73;2.20;;;;;;;6.89;100.00;101204.34;4896818;29;20032;-64
2022/12/26 09:55:23;;;;;;;5.88;2.40;;;;;;;6.85;100.00;101212.28;4990820;28;20050;-62
2022/12/26 09:57:50;;;;;;;9.50;1.90;;;;;;;6.48;100.00;101168.19;4977730;28;20113;-62
2022/12/26 10:00:19;;;;;;;15.10;2.85;;;;;;;6.88;100.00;101222.69;4979443;28;20680;-64
2022/12/26 10:02:52;;;;;;;12.32;2.63;;;;;;;6.38;100.00;101135.19;5014625;28;20533;-62
2022/12/26 10:05:19;;;;;;;11.55;2.88;;;;;;;6.38;100.00;101139.53;4997280;28;20405;-63
2022/12/26 10:07:49;;;;;;;11.23;2.60;;;;;;;6.79;100.00;101215.81;4997130;28;20058;-62
2022/12/26 10:10:21;;;;;;;9.88;2.10;;;;;;;6.85;100.00;101230.59;4996722;28;20070;-62
2022/12/26 10:12:46;;;;;;;11.65;2.47;;;;;;;6.84;100.00;101239.31;5010024;28;20080;-64
2022/12/26 10:15:40;;;;;;;8.70;2.00;;;;;;;6.82;100.00;101244.56;5014751;28;20042;-62
2022/12/26 10:18:16;;;;;;;8.50;2.10;;;;;;;6.91;100.00;101252.34;5014393;28;20169;-64
2022/12/26 10:21:08;;;;;;;7.55;2.15;;;;;;;7.13;100.00;101251.19;5013903;28;20072;-63
2022/12/26 10:23:54;;;;;;;8.40;1.92;;;;;;;7.31;100.00;101261.44;5014743;28;20077;-61
2022/12/26 10:26:28;;;;;;;15.00;2.30;;;;;;;6.97;100.00;101183.34;5014530;28;20120;-62
2022/12/26 10:29:08;;;;;;;9.15;2.15;;;;;;;7.57;100.00;101270.72;5014240;28;20085;-64
2022/12/26 10:32:04;;;;;;;9.82;2.67;;;;;;;7.59;100.00;101274.19;5091505;23;20060;-62
2022/12/26 10:34:55;;;;;;;6.88;1.70;;;;;;;7.50;100.00;101288.25;5013663;28;20046;-61
2022/12/26 10:37:37;;;;;;;7.05;1.83;;;;;;;6.97;100.00;101225.22;4991961;28;20129;-62
2022/12/26 10:40:22;;;;;;;9.82;1.95;;;;;;;7.16;100.00;101292.16;4996725;28;20030;-63
2022/12/26 10:43:00;;;;;;;11.43;2.38;;;;;;;7.02;100.00;101273.13;5013500;28;20564;-63
2022/12/26 10:45:36;;;;;;;9.30;2.30;;;;;;;7.19;100.00;101292.13;4994682;28;20089;-61
2022/12/26 10:48:01;;;;;;;9.57;2.30;;;;;;;6.75;100.00;101232.44;4976676;28;20034;-62
2022/12/26 10:50:30;;;;;;;12.20;2.42;;;;;;;7.16;100.00;101289.56;4979370;28;20042;-62
2022/12/26 10:52:57;;;;;;;8.55;2.35;;;;;;;7.05;100.00;101300.16;4996271;28;20389;-63
2022/12/26 10:55:28;;;;;;;8.57;2.00;;;;;;;6.86;100.00;101292.50;5013535;28;20029;-62
2022/12/26 10:57:54;;;;;;;8.85;1.90;;;;;;;6.90;100.00;101302.06;5012243;28;20041;-63
2022/12/26 11:00:21;;;;;;;13.65;2.10;;;;;;;6.82;100.00;101319.59;4996078;28;20037;-64
2022/12/26 11:03:00;;;;;;;7.85;1.92;;;;;;;6.75;100.00;101318.75;4995132;28;20046;-63
2022/12/26 11:05:26;;;;;;;12.48;1.70;;;;;;;6.72;100.00;101331.88;5013581;28;20054;-62
2022/12/26 11:07:54;;;;;;;9.50;1.88;;;;;;;6.73;100.00;101338.84;5013235;28;20485;-61
2022/12/26 11:10:23;;;;;;;10.20;1.70;;;;;;;6.34;100.00;101287.72;4995154;28;20076;-63
2022/12/26 11:12:54;;;;;;;6.88;1.80;;;;;;;6.63;100.00;101363.34;5013287;28;20030;-64
2022/12/26 11:15:40;;;;;;;4.57;1.35;;;;;;;6.01;100.00;101261.88;4979045;28;20034;-62
2022/12/26 11:18:17;;;;;;;6.88;1.10;;;;;;;6.12;100.00;101283.56;4996004;28;20050;-63
2022/12/26 11:20:43;;;;;;;8.13;1.85;;;;;;;6.54;100.00;101340.75;5013053;28;20034;-63
2022/12/26 11:23:21;;;;;;;7.22;1.63;;;;;;;6.19;100.00;101275.66;4995940;28;20069;-61
2022/12/26 11:25:51;;;;;;;12.25;1.58;;;;;;;6.61;100.00;101346.78;5013696;28;20041;-63
2022/12/26 11:28:36;;;;;;;6.28;1.52;;;;;;;6.38;100.00;101302.53;5013375;28;20026;-63
2022/12/26 11:31:05;;;;;;;7.68;1.70;;;;;;;6.55;100.00;101315.47;5012916;28;20109;-62
2022/12/26 11:33:42;;;;;;;5.90;1.48;;;;;;;7.01;100.00;101395.28;4994612;28;20033;-62
2022/12/26 11:36:10;;;;;;;9.45;1.67;;;;;;;6.80;100.00;101304.75;4995202;28;20164;-63
2022/12/26 11:38:48;;;;;;;7.70;1.70;;;;;;;7.45;100.00;101393.97;5013196;28;20068;-62
2022/12/26 11:41:31;;;;;;;9.23;1.90;;;;;;;7.57;100.00;101381.63;5012543;28;20549;-64
2022/12/26 11:44:09;;;;;;;5.15;1.63;;;;;;;7.57;100.00;101388.59;4996791;28;20052;-67
2022/12/26 11:46:41;;;;;;;5.10;1.30;;;;;;;7.49;100.00;101387.81;5011438;28;20092;-64
2022/12/26 11:49:16;;;;;;;4.05;1.35;;;;;;;7.35;100.00;101416.78;5013084;28;20022;-64
2022/12/26 11:51:45;;;;;;;3.70;1.50;;;;;;;6.80;100.00;101330.03;4993921;28;20124;-65
2022/12/26 11:54:33;;;;;;;4.07;1.05;;;;;;;7.03;100.00;101409.25;5011419;28;20042;-64
2022/12/26 11:57:02;;;;;;;5.32;1.08;;;;;;;6.79;100.00;101393.75;5003968;28;20034;-66
2022/12/26 11:59:28;;;;;;;6.20;1.27;;;;;;;5.49;100.00;101189.03;4995308;28;20026;-62
2022/12/26 12:02:17;;;;;;;4.55;1.33;;;;;;;6.69;100.00;101413.00;5012660;28;20129;-63
2022/12/26 12:04:44;;;;;;;3.67;1.15;;;;;;;6.26;100.00;101333.13;5012133;28;20116;-63
2022/12/26 12:07:28;;;;;;;3.00;0.75;;;;;;;6.72;100.00;101407.75;4994620;28;20532;-64
2022/12/26 12:10:02;;;;;;;3.58;1.30;;;;;;;6.77;100.00;101419.91;5012310;28;20499;-65
2022/12/26 12:12:42;;;;;;;5.38;1.30;;;;;;;6.75;100.00;101413.81;4994757;28;20041;-63
2022/12/26 12:15:45;;;;;;;6.47;1.35;;;;;;;6.78;100.00;101403.34;4994830;28;20037;-63
2022/12/26 12:18:26;;;;;;;7.63;1.67;;;;;;;6.79;100.00;101420.78;4916944;29;20040;-65
2022/12/26 12:21:17;;;;;;;6.60;1.40;;;;;;;6.66;100.00;101421.72;4987909;28;20566;-63
2022/12/26 12:24:03;;;;;;;7.90;1.58;;;;;;;5.67;100.00;101264.66;4994992;28;20038;-65
2022/12/26 12:26:28;;;;;;;3.47;1.00;;;;;;;6.53;100.00;101448.00;5012659;28;20038;-64
2022/12/26 12:29:24;;;;;;;4.90;1.42;;;;;;;6.46;100.00;101438.44;5012509;28;20041;-63
2022/12/26 12:32:12;;;;;;;6.68;1.35;;;;;;;6.40;100.00;101433.25;5011492;28;20062;-64
2022/12/26 12:34:47;;;;;;;4.35;1.35;;;;;;;6.45;100.00;101429.72;5011065;28;20133;-64
2022/12/26 12:37:24;;;;;;;6.75;1.42;;;;;;;6.40;100.00;101460.25;5011901;28;20478;-63
2022/12/26 12:39:58;;;;;;;5.53;1.00;;;;;;;6.38;100.00;101448.09;4994598;28;20092;-63
2022/12/26 12:42:29;;;;;;;4.85;1.63;;;;;;;6.27;100.00;101462.97;4994479;28;20026;-64
2022/12/26 12:45:25;;;;;;;4.70;1.48;;;;;;;6.08;100.00;101421.22;5012072;28;20034;-64
2022/12/26 12:48:03;;;;;;;7.20;1.42;;;;;;;6.13;100.00;101455.16;5012222;28;20382;-65
2022/12/26 12:50:42;;;;;;;5.32;1.40;;;;;;;5.69;100.00;101390.03;5011750;28;20034;-64
2022/12/26 12:53:23;;;;;;;7.70;1.77;;;;;;;6.06;100.00;101464.81;5011430;28;20029;-64
2022/12/26 12:55:53;;;;;;;6.80;1.77;;;;;;;6.03;100.00;101464.81;5012108;28;20499;-64
2022/12/26 12:58:42;;;;;;;4.78;1.08;;;;;;;6.05;100.00;101472.63;4997338;28;20038;-64
2022/12/26 13:01:17;;;;;;;9.80;1.60;;;;;;;6.03;100.00;101480.50;4997972;28;20045;-63
2022/12/26 13:04:09;;;;;;;3.85;1.20;;;;;;;5.82;100.00;101463.97;4998347;28;20030;-64
2022/12/26 13:06:47;;;;;;;6.88;1.60;;;;;;;5.86;100.00;101489.25;5015747;28;20025;-63
2022/12/26 13:09:26;;;;;;;4.00;1.40;;;;;;;5.79;100.00;101479.66;4999670;28;20026;-64
2022/12/26 13:12:03;;;;;;;7.40;1.73;;;;;;;5.18;100.00;101406.69;5015677;28;20037;-64
2022/12/26 13:14:36;;;;;;;5.30;1.42;;;;;;;5.26;100.00;101438.84;4998118;28;20034;-63
2022/12/26 13:17:17;;;;;;;8.07;1.52;;;;;;;5.59;100.00;101493.63;4998636;28;20112;-64
2022/12/26 13:19:57;;;;;;;11.73;1.63;;;;;;;5.71;100.00;101500.56;4997978;28;20030;-63
2022/12/26 13:25:43;;;;;;;4.53;1.80;;;;;;;5.39;100.00;101431.88;5000971;28;20060;-63
2022/12/26 13:28:22;;;;;;;7.55;1.58;;;;;;;5.75;100.00;101489.22;4998023;28;20091;-63
2022/12/26 13:30:54;;;;;;;7.85;1.88;;;;;;;5.33;100.00;101424.06;5015429;28;20068;-63
2022/12/26 13:33:20;;;;;;;8.52;1.77;;;;;;;5.84;100.00;101517.94;4997504;28;20089;-65
2022/12/26 13:35:51;;;;;;;9.27;4.22;;;;;;;5.89;100.00;101505.81;4997745;28;20064;-63
2022/12/26 13:38:16;;;;;;;9.40;4.07;;;;;;;5.91;100.00;101517.09;4997616;28;20390;-64
2022/12/26 13:44:01;;;;;;;7.43;1.50;;;;;;;6.12;100.00;101518.78;5015496;28;20056;-64